createdAt,value
2016-08-27T00:00:00.574Z,90.77
2016-08-27T00:00:59.861Z,90.09
2016-08-27T00:01:59.862Z,90.09
2016-08-27T00:02:59.851Z,89.81
2016-08-27T00:03:59.847Z,90
2016-08-27T00:04:59.837Z,90.77
2016-08-27T00:05:59.827Z,90.29
2016-08-27T00:06:59.823Z,90.19
2016-08-27T00:07:59.816Z,90.77
2016-08-27T00:08:59.808Z,90.38
2016-08-27T00:09:59.804Z,90.67
2016-08-27T00:10:59.796Z,90.48
2016-08-27T00:11:59.795Z,90.58
2016-08-27T00:12:59.784Z,90.77
2016-08-27T00:14:00.484Z,90.77
2016-08-27T00:14:59.773Z,90.77
2016-08-27T00:15:59.765Z,91.25
2016-08-27T00:16:59.760Z,90.96
2016-08-27T00:17:59.754Z,91.25
2016-08-27T00:18:59.744Z,91.35
2016-08-27T00:19:59.739Z,91.83
2016-08-27T00:20:59.728Z,91.2
2016-08-27T00:21:59.723Z,92.08
2016-08-27T00:22:59.719Z,92.08
2016-08-27T00:23:59.714Z,91.5
2016-08-27T00:24:59.707Z,92.17
2016-08-27T00:25:59.700Z,92.46
2016-08-27T00:26:59.694Z,92.36
2016-08-27T00:27:59.689Z,92.36
2016-08-27T00:28:59.682Z,92.27
2016-08-27T00:29:59.673Z,92.46
2016-08-27T00:30:59.670Z,92.46
2016-08-27T00:31:59.664Z,92.27
2016-08-27T00:32:59.654Z,92.36
2016-08-27T00:33:59.652Z,92.36
2016-08-27T00:34:59.640Z,92.65
2016-08-27T00:35:59.636Z,92.56
2016-08-27T00:36:59.630Z,92.56
2016-08-27T00:37:59.623Z,93.23
2016-08-27T00:38:59.618Z,93.04
2016-08-27T00:40:00.353Z,93.04
2016-08-27T00:40:59.604Z,93.13
2016-08-27T00:41:59.595Z,93.13
2016-08-27T00:42:59.590Z,93.09
2016-08-27T00:43:59.587Z,93.62
2016-08-27T00:44:59.577Z,92.9
2016-08-27T00:45:59.570Z,93.38
2016-08-27T00:46:59.566Z,93.38
2016-08-27T00:47:59.557Z,93.76
2016-08-27T00:48:59.548Z,93.57
2016-08-27T00:49:59.542Z,93.57
2016-08-27T00:50:59.537Z,93.76
2016-08-27T00:51:59.531Z,93.38
2016-08-27T00:52:59.522Z,93.86
2016-08-27T00:53:59.518Z,93.48
2016-08-27T00:54:59.515Z,94.44
2016-08-27T00:55:59.500Z,94.24
2016-08-27T00:56:59.496Z,94.15
2016-08-27T00:58:00.210Z,94.24
2016-08-27T00:58:59.478Z,94.34
2016-08-27T00:59:59.474Z,94.82
2016-08-27T01:00:59.467Z,94.73
2016-08-27T01:01:59.463Z,94.24
2016-08-27T01:02:59.455Z,94.63
2016-08-27T01:03:59.447Z,94.54
2016-08-27T01:04:59.449Z,94.73
2016-08-27T01:06:00.139Z,94.82
2016-08-27T01:06:59.425Z,95.02
2016-08-27T01:07:59.419Z,95.02
2016-08-27T01:08:59.413Z,94.44
2016-08-27T01:09:59.407Z,94.54
2016-08-27T01:10:59.402Z,94.44
2016-08-27T01:11:59.392Z,95.11
2016-08-27T01:12:59.392Z,94.82
2016-08-27T01:14:00.088Z,94.92
2016-08-27T01:15:00.081Z,94.92
2016-08-27T01:15:59.369Z,95.31
2016-08-27T01:17:00.069Z,95.11
2016-08-27T01:17:59.353Z,95.02
2016-08-27T01:18:59.344Z,95.11
2016-08-27T01:20:00.045Z,95.02
2016-08-27T01:20:59.332Z,95.21
2016-08-27T01:21:59.325Z,95.45
2016-08-27T01:23:00.072Z,95.26
2016-08-27T01:23:59.310Z,95.64
2016-08-27T01:24:59.304Z,95.84
2016-08-27T01:25:59.298Z,95.55
2016-08-27T01:26:59.300Z,96.12
2016-08-27T01:27:59.279Z,96.42
2016-08-27T01:28:59.290Z,95.64
2016-08-27T01:29:59.264Z,95.36
2016-08-27T01:30:59.259Z,95.64
2016-08-27T01:31:59.258Z,95.55
2016-08-27T01:32:59.248Z,95.45
2016-08-27T01:33:59.242Z,95.69
2016-08-27T01:34:59.230Z,95.26
2016-08-27T01:35:59.226Z,95.26
2016-08-27T01:36:59.219Z,95.55
2016-08-27T01:37:59.213Z,95.59
2016-08-27T01:38:59.203Z,95.31
2016-08-27T01:39:59.198Z,95.64
2016-08-27T01:40:59.192Z,95.74
2016-08-27T01:41:59.186Z,94.68
2016-08-27T01:42:59.175Z,95.36
2016-08-27T01:43:59.873Z,95.64
2016-08-27T01:44:59.163Z,95.64
2016-08-27T01:45:59.156Z,95.64
2016-08-27T01:46:59.157Z,96.32
2016-08-27T01:47:59.144Z,95.36
2016-08-27T01:48:59.135Z,95.64
2016-08-27T01:49:59.127Z,95.55
2016-08-27T01:50:59.119Z,95.36
2016-08-27T01:51:59.112Z,95.36
2016-08-27T01:52:59.112Z,95.64
2016-08-27T01:53:59.097Z,95.64
2016-08-27T01:54:59.092Z,95.55
2016-08-27T01:55:59.092Z,95.64
2016-08-27T01:56:59.077Z,96.12
2016-08-27T01:57:59.473Z,95.94
2016-08-27T01:58:59.064Z,95.84
2016-08-27T01:59:59.764Z,96.32
2016-08-27T02:00:59.047Z,96.32
2016-08-27T02:01:59.042Z,96.12
2016-08-27T02:02:59.746Z,96.17
2016-08-27T02:03:59.030Z,95.94
2016-08-27T02:04:59.019Z,96.22
2016-08-27T02:05:59.015Z,95.98
2016-08-27T02:06:59.007Z,96.42
2016-08-27T02:07:59.001Z,96.42
2016-08-27T02:08:59.702Z,96.56
2016-08-27T02:09:58.990Z,96.17
2016-08-27T02:10:58.989Z,96.12
2016-08-27T02:11:58.972Z,96.17
2016-08-27T02:12:58.963Z,96.46
2016-08-27T02:13:58.957Z,96.66
2016-08-27T02:14:58.951Z,95.79
2016-08-27T02:15:58.946Z,96.22
2016-08-27T02:16:58.941Z,96.08
2016-08-27T02:17:58.928Z,95.6
2016-08-27T02:18:58.925Z,95.89
2016-08-27T02:19:58.915Z,95.5
2016-08-27T02:20:58.907Z,95.31
2016-08-27T02:21:58.897Z,95.31
2016-08-27T02:22:58.891Z,95.74
2016-08-27T02:23:58.887Z,95.4
2016-08-27T02:24:58.883Z,95.31
2016-08-27T02:25:58.873Z,95.79
2016-08-27T02:26:58.861Z,95.6
2016-08-27T02:27:58.906Z,95.4
2016-08-27T02:28:58.848Z,95.12
2016-08-27T02:29:59.550Z,94.73
2016-08-27T02:30:58.835Z,95.4
2016-08-27T02:31:58.827Z,95.12
2016-08-27T02:32:58.822Z,95.12
2016-08-27T02:33:59.518Z,95.31
2016-08-27T02:34:58.808Z,95.21
2016-08-27T02:35:58.797Z,95.21
2016-08-27T02:36:58.790Z,95.12
2016-08-27T02:37:58.782Z,95.12
2016-08-27T02:38:58.777Z,95.21
2016-08-27T02:39:59.477Z,95.31
2016-08-27T02:40:58.760Z,95.21
2016-08-27T02:41:58.753Z,95.02
2016-08-27T02:42:58.750Z,94.73
2016-08-27T02:43:58.743Z,94.92
2016-08-27T02:44:58.733Z,94.92
2016-08-27T02:45:58.724Z,95.02
2016-08-27T02:46:58.724Z,95.26
2016-08-27T02:47:58.712Z,95.02
2016-08-27T02:48:58.706Z,94.44
2016-08-27T02:49:58.697Z,94.73
2016-08-27T02:50:58.698Z,94.54
2016-08-27T02:51:58.677Z,94.97
2016-08-27T02:52:58.671Z,95.02
2016-08-27T02:53:59.372Z,94.82
2016-08-27T02:54:59.365Z,95.31
2016-08-27T02:55:58.649Z,94.68
2016-08-27T02:56:58.643Z,94.59
2016-08-27T02:57:58.639Z,94.97
2016-08-27T02:58:58.631Z,94.87
2016-08-27T02:59:58.618Z,94.87
2016-08-27T03:00:58.615Z,95.26
2016-08-27T03:01:58.605Z,94.97
2016-08-27T03:02:58.600Z,94.97
2016-08-27T03:03:58.637Z,94.59
2016-08-27T03:04:59.291Z,95.17
2016-08-27T03:05:58.579Z,95.26
2016-08-27T03:06:58.577Z,96.12
2016-08-27T03:07:58.563Z,95.74
2016-08-27T03:08:58.554Z,95.84
2016-08-27T03:09:58.545Z,95.45
2016-08-27T03:10:58.543Z,95.74
2016-08-27T03:11:58.533Z,95.45
2016-08-27T03:12:58.523Z,96.22
2016-08-27T03:13:58.516Z,95.45
2016-08-27T03:14:58.509Z,95.65
2016-08-27T03:15:58.511Z,95.55
2016-08-27T03:16:58.493Z,95.55
2016-08-27T03:17:58.485Z,95.26
2016-08-27T03:18:58.481Z,95.55
2016-08-27T03:19:58.471Z,95.26
2016-08-27T03:20:58.467Z,95.94
2016-08-27T03:21:58.458Z,95.65
2016-08-27T03:22:58.448Z,96.32
2016-08-27T03:23:58.443Z,96.22
2016-08-27T03:24:58.436Z,96.03
2016-08-27T03:25:58.431Z,95.94
2016-08-27T03:26:58.432Z,96.32
2016-08-27T03:27:58.412Z,96.66
2016-08-27T03:28:58.407Z,95.94
2016-08-27T03:29:58.403Z,95.74
2016-08-27T03:30:58.391Z,95.89
2016-08-27T03:31:58.383Z,96.66
2016-08-27T03:32:58.375Z,96.17
2016-08-27T03:33:58.369Z,96.56
2016-08-27T03:34:58.362Z,96.17
2016-08-27T03:35:58.353Z,96.61
2016-08-27T03:36:59.118Z,96.56
2016-08-27T03:37:58.338Z,96.47
2016-08-27T03:38:58.332Z,96.47
2016-08-27T03:39:58.331Z,96.47
2016-08-27T03:40:58.315Z,96.27
2016-08-27T03:41:58.310Z,95.89
2016-08-27T03:42:58.303Z,96.08
2016-08-27T03:43:58.294Z,95.79
2016-08-27T03:44:58.286Z,96.03
2016-08-27T03:45:58.986Z,96.27
2016-08-27T03:46:58.272Z,96.47
2016-08-27T03:47:58.265Z,96.47
2016-08-27T03:48:58.254Z,95.89
2016-08-27T03:49:58.251Z,96.37
2016-08-27T03:50:58.239Z,96.56
2016-08-27T03:51:58.231Z,96.47
2016-08-27T03:52:58.937Z,96.27
2016-08-27T03:53:58.217Z,96.75
2016-08-27T03:54:58.208Z,96.66
2016-08-27T03:55:58.915Z,97.33
2016-08-27T03:56:58.195Z,97.04
2016-08-27T03:57:58.187Z,96.85
2016-08-27T03:58:58.888Z,96.94
2016-08-27T03:59:58.879Z,96.75
2016-08-27T04:00:58.169Z,96.75
2016-08-27T04:01:58.158Z,96.37
2016-08-27T04:02:58.156Z,96.56
2016-08-27T04:03:58.143Z,96.94
2016-08-27T04:04:58.132Z,97.04
2016-08-27T04:05:58.832Z,96.66
2016-08-27T04:06:58.121Z,96.75
2016-08-27T04:07:58.108Z,96.47
2016-08-27T04:08:58.107Z,96.27
2016-08-27T04:09:58.095Z,96.94
2016-08-27T04:10:58.088Z,96.17
2016-08-27T04:11:58.079Z,96.37
2016-08-27T04:12:58.072Z,96.17
2016-08-27T04:13:58.066Z,96.17
2016-08-27T04:14:58.056Z,96.03
2016-08-27T04:15:58.051Z,95.89
2016-08-27T04:16:58.041Z,95.79
2016-08-27T04:17:58.036Z,96.27
2016-08-27T04:18:58.026Z,95.21
2016-08-27T04:19:58.019Z,95.6
2016-08-27T04:20:58.718Z,95.6
2016-08-27T04:21:58.004Z,95.17
2016-08-27T04:22:57.991Z,95.45
2016-08-27T04:23:58.036Z,95.7
2016-08-27T04:24:57.978Z,95.31
2016-08-27T04:25:57.985Z,95.55
2016-08-27T04:26:57.961Z,94.68
2016-08-27T04:27:57.955Z,94.68
2016-08-27T04:28:57.950Z,94.98
2016-08-27T04:29:57.943Z,94.59
2016-08-27T04:30:57.934Z,94.88
2016-08-27T04:31:57.931Z,94.68
2016-08-27T04:32:57.920Z,94.73
2016-08-27T04:33:57.907Z,95.07
2016-08-27T04:34:57.902Z,94.68
2016-08-27T04:35:57.895Z,94.83
2016-08-27T04:36:57.896Z,94.45
2016-08-27T04:37:57.879Z,94.49
2016-08-27T04:38:57.886Z,94.11
2016-08-27T04:39:58.578Z,94.59
2016-08-27T04:40:57.853Z,94.59
2016-08-27T04:41:57.848Z,94.11
2016-08-27T04:42:57.840Z,94.11
2016-08-27T04:43:57.830Z,94.49
2016-08-27T04:44:57.835Z,94.11
2016-08-27T04:45:57.815Z,94.54
2016-08-27T04:46:58.534Z,94.4
2016-08-27T04:47:57.799Z,93.68
2016-08-27T04:48:58.501Z,93.87
2016-08-27T04:49:58.491Z,93.82
2016-08-27T04:50:57.777Z,94.11
2016-08-27T04:51:57.769Z,94.21
2016-08-27T04:52:57.759Z,93.91
2016-08-27T04:53:57.754Z,93.48
2016-08-27T04:54:57.795Z,93.48
2016-08-27T04:55:57.737Z,93.24
2016-08-27T04:56:57.730Z,93.34
2016-08-27T04:57:57.724Z,94.21
2016-08-27T04:58:57.716Z,93.24
2016-08-27T04:59:57.707Z,94.11
2016-08-27T05:00:57.702Z,93.44
2016-08-27T05:01:57.689Z,93.82
2016-08-27T05:02:57.685Z,93.53
2016-08-27T05:03:57.677Z,93.68
2016-08-27T05:04:57.673Z,93.44
2016-08-27T05:05:57.658Z,93.82
2016-08-27T05:06:57.650Z,93.77
2016-08-27T05:07:58.353Z,93.91
2016-08-27T05:08:57.634Z,93.68
2016-08-27T05:09:57.631Z,93.48
2016-08-27T05:10:58.327Z,93.19
2016-08-27T05:11:57.612Z,93.29
2016-08-27T05:12:58.314Z,93.48
2016-08-27T05:13:57.597Z,93.96
2016-08-27T05:14:57.596Z,93.48
2016-08-27T05:15:57.587Z,94.06
2016-08-27T05:16:57.575Z,93.48
2016-08-27T05:17:57.566Z,94.15
2016-08-27T05:18:57.558Z,93.87
2016-08-27T05:19:58.261Z,94.25
2016-08-27T05:20:57.544Z,93.82
2016-08-27T05:21:57.535Z,93.96
2016-08-27T05:22:57.528Z,93.38
2016-08-27T05:23:57.574Z,93.96
2016-08-27T05:24:57.554Z,94.35
2016-08-27T05:25:57.507Z,94.06
2016-08-27T05:26:57.496Z,93.77
2016-08-27T05:27:57.487Z,94.06
2016-08-27T05:28:57.490Z,94.25
2016-08-27T05:29:58.183Z,94.64
2016-08-27T05:30:57.467Z,94.83
2016-08-27T05:31:58.169Z,94.25
2016-08-27T05:32:57.465Z,94.15
2016-08-27T05:33:57.446Z,94.83
2016-08-27T05:34:57.436Z,94.45
2016-08-27T05:35:57.433Z,94.83
2016-08-27T05:36:57.426Z,93.77
2016-08-27T05:37:57.414Z,93.96
2016-08-27T05:38:58.117Z,94.25
2016-08-27T05:39:57.401Z,94.15
2016-08-27T05:40:57.393Z,93.96
2016-08-27T05:41:57.384Z,93.68
2016-08-27T05:42:57.375Z,94.45
2016-08-27T05:43:57.365Z,93.96
2016-08-27T05:44:57.363Z,94.06
2016-08-27T05:45:58.059Z,94.83
2016-08-27T05:46:57.351Z,94.15
2016-08-27T05:47:57.338Z,93.87
2016-08-27T05:48:58.034Z,94.06
2016-08-27T05:49:57.325Z,93.87
2016-08-27T05:50:57.311Z,94.06
2016-08-27T05:51:57.308Z,93.87
2016-08-27T05:52:57.300Z,93.77
2016-08-27T05:53:57.292Z,93.87
2016-08-27T05:54:57.293Z,94.35
2016-08-27T05:55:57.983Z,93.87
2016-08-27T05:56:57.272Z,94.15
2016-08-27T05:57:57.259Z,93.77
2016-08-27T05:58:57.255Z,93.68
2016-08-27T05:59:57.250Z,93.62
2016-08-27T06:00:57.239Z,93.1
2016-08-27T06:01:57.231Z,94.01
2016-08-27T06:02:57.224Z,93.15
2016-08-27T06:03:57.215Z,94.01
2016-08-27T06:04:57.208Z,93.82
2016-08-27T06:05:57.209Z,93.33
2016-08-27T06:06:57.191Z,92.38
2016-08-27T06:07:57.187Z,92.66
2016-08-27T06:08:57.178Z,92.57
2016-08-27T06:09:57.177Z,92.66
2016-08-27T06:10:57.163Z,92.57
2016-08-27T06:11:57.170Z,92.47
2016-08-27T06:12:57.877Z,92.08
2016-08-27T06:13:57.140Z,93.15
2016-08-27T06:14:57.141Z,92.95
2016-08-27T06:15:57.136Z,92.57
2016-08-27T06:16:57.830Z,92.66
2016-08-27T06:17:57.115Z,92.47
2016-08-27T06:18:57.104Z,92.66
2016-08-27T06:19:57.107Z,92.57
2016-08-27T06:20:57.101Z,92.38
2016-08-27T06:21:57.082Z,92.66
2016-08-27T06:22:57.782Z,92.18
2016-08-27T06:23:57.066Z,93.24
2016-08-27T06:24:57.059Z,92.57
2016-08-27T06:25:57.121Z,92.47
2016-08-27T06:26:57.046Z,92.57
2016-08-27T06:27:57.038Z,91.99
2016-08-27T06:28:57.031Z,92.18
2016-08-27T06:29:57.033Z,92.08
2016-08-27T06:30:57.733Z,91.94
2016-08-27T06:31:57.006Z,92.22
2016-08-27T06:32:57.003Z,92.13
2016-08-27T06:33:57.001Z,91.94
2016-08-27T06:34:56.988Z,91.84
2016-08-27T06:35:56.983Z,91.55
2016-08-27T06:36:56.973Z,92.13
2016-08-27T06:37:56.973Z,91.84
2016-08-27T06:38:56.959Z,91.46
2016-08-27T06:39:57.867Z,91.55
2016-08-27T06:40:57.650Z,92.22
2016-08-27T06:41:57.649Z,91.84
2016-08-27T06:42:56.927Z,91.65
2016-08-27T06:43:56.920Z,91.75
2016-08-27T06:45:11.805Z,91.55
2016-08-27T06:45:56.903Z,91.75
2016-08-27T06:46:56.900Z,91.84
2016-08-27T06:47:57.605Z,91.5
2016-08-27T06:48:56.922Z,91.55
2016-08-27T06:49:57.590Z,91.75
2016-08-27T06:50:56.878Z,90.44
2016-08-27T06:51:56.873Z,90.34
2016-08-27T06:52:56.859Z,90.64
2016-08-27T06:53:57.564Z,90.34
2016-08-27T06:54:56.842Z,90.16
2016-08-27T06:55:57.571Z,89.96
2016-08-27T06:56:57.543Z,89.67
2016-08-27T06:57:56.820Z,90.06
2016-08-27T06:58:56.821Z,90.54
2016-08-27T06:59:56.803Z,89.96
2016-08-27T07:00:56.799Z,89.67
2016-08-27T07:01:57.535Z,89.67
2016-08-27T07:02:56.786Z,89.67
2016-08-27T07:03:56.779Z,89.48
2016-08-27T07:04:57.478Z,89
2016-08-27T07:05:57.495Z,89.67
2016-08-27T07:06:56.756Z,89.62
2016-08-27T07:07:56.759Z,89.86
2016-08-27T07:08:56.754Z,89.81
2016-08-27T07:09:56.742Z,89.14
2016-08-27T07:10:56.728Z,89.62
2016-08-27T07:11:56.777Z,89.14
2016-08-27T07:12:57.098Z,89.72
2016-08-27T07:13:57.429Z,89.53
2016-08-27T07:14:56.703Z,89.33
2016-08-27T07:15:56.698Z,89.33
2016-08-27T07:16:56.689Z,89.14
2016-08-27T07:17:56.683Z,89.23
2016-08-27T07:18:57.421Z,89.33
2016-08-27T07:19:56.675Z,89.14
2016-08-27T07:20:56.677Z,89.53
2016-08-27T07:21:56.674Z,89.14
2016-08-27T07:22:56.654Z,89.14
2016-08-27T07:23:56.641Z,89.04
2016-08-27T07:24:56.634Z,88.95
2016-08-27T07:25:57.335Z,88.65
2016-08-27T07:26:56.621Z,88.37
2016-08-27T07:27:56.612Z,88.12
2016-08-27T07:28:56.611Z,87.54
2016-08-27T07:29:57.309Z,87.98
2016-08-27T07:30:56.597Z,88.17
2016-08-27T07:31:56.586Z,88.41
2016-08-27T07:32:56.585Z,88.89
2016-08-27T07:33:56.572Z,88.51
2016-08-27T07:34:56.566Z,88.22
2016-08-27T07:35:56.561Z,87.74
2016-08-27T07:36:56.554Z,88.22
2016-08-27T07:37:56.545Z,88.12
2016-08-27T07:38:57.250Z,88.22
2016-08-27T07:39:57.244Z,87.4
2016-08-27T07:40:56.528Z,87.26
2016-08-27T07:41:57.226Z,87.54
2016-08-27T07:42:56.521Z,86.58
2016-08-27T07:43:56.503Z,87.1
2016-08-27T07:44:56.550Z,86.77
2016-08-27T07:45:56.498Z,87.01
2016-08-27T07:46:56.488Z,86.19
2016-08-27T07:47:56.481Z,87.01
2016-08-27T07:48:56.474Z,86.77
2016-08-27T07:49:56.469Z,86.04
2016-08-27T07:50:56.462Z,86.33
2016-08-27T07:51:56.454Z,86.91
2016-08-27T07:52:56.447Z,87.2
2016-08-27T07:53:56.455Z,87.59
2016-08-27T07:54:56.433Z,87.49
2016-08-27T07:55:57.230Z,87.1
2016-08-27T07:56:56.430Z,87.1
2016-08-27T07:57:56.420Z,87.3
2016-08-27T07:58:56.408Z,86.96
2016-08-27T07:59:56.402Z,86.18
2016-08-27T08:00:56.396Z,85.22
2016-08-27T08:01:56.388Z,86.47
2016-08-27T08:02:56.385Z,85.22
2016-08-27T08:03:56.380Z,85.8
2016-08-27T08:04:56.374Z,85.6
2016-08-27T08:05:56.363Z,85.12
2016-08-27T08:06:56.357Z,85.41
2016-08-27T08:07:56.358Z,85.5
2016-08-27T08:08:56.347Z,84.06
2016-08-27T08:09:56.351Z,85.02
2016-08-27T08:10:56.334Z,85.12
2016-08-27T08:11:56.327Z,84.78
2016-08-27T08:12:57.027Z,84.68
2016-08-27T08:13:57.023Z,84.1
2016-08-27T08:14:56.322Z,83.91
2016-08-27T08:15:56.304Z,84.78
2016-08-27T08:16:56.296Z,83.91
2016-08-27T08:17:56.296Z,82.11
2016-08-27T08:18:56.286Z,81.38
2016-08-27T08:19:56.279Z,82.35
2016-08-27T08:20:56.274Z,81.87
2016-08-27T08:21:56.267Z,80.51
2016-08-27T08:22:56.973Z,81.67
2016-08-27T08:23:56.964Z,80.8
2016-08-27T08:24:56.252Z,80.51
2016-08-27T08:25:56.253Z,81.09
2016-08-27T08:26:56.243Z,79.16
2016-08-27T08:27:56.236Z,79.78
2016-08-27T08:28:56.228Z,78.56
2016-08-27T08:29:56.229Z,77.11
2016-08-27T08:30:56.222Z,76.66
2016-08-27T08:31:56.214Z,75.24
2016-08-27T08:32:56.918Z,72.86
2016-08-27T08:33:56.252Z,70.67
2016-08-27T08:34:56.201Z,70.76
2016-08-27T08:35:56.195Z,70.96
2016-08-27T08:36:56.186Z,70.09
2016-08-27T08:37:56.192Z,70.47
2016-08-27T08:38:56.177Z,71.06
2016-08-27T08:39:56.172Z,71.34
2016-08-27T08:40:56.873Z,71.54
2016-08-27T08:41:56.866Z,74.22
2016-08-27T08:42:56.164Z,73.05
2016-08-27T08:43:56.149Z,73.44
2016-08-27T08:44:56.148Z,73.69
2016-08-27T08:45:56.139Z,73.89
2016-08-27T08:46:56.894Z,74.96
2016-08-27T08:47:56.135Z,75.05
2016-08-27T08:48:56.135Z,73.35
2016-08-27T08:49:56.120Z,73.35
2016-08-27T08:50:56.112Z,73.25
2016-08-27T08:51:56.109Z,73.93
2016-08-27T08:52:56.105Z,75.15
2016-08-27T08:53:56.105Z,75.05
2016-08-27T08:54:56.815Z,74.96
2016-08-27T08:55:56.090Z,76.6
2016-08-27T08:56:56.089Z,75.54
2016-08-27T08:57:56.077Z,75.83
2016-08-27T08:58:56.079Z,75.21
2016-08-27T08:59:56.074Z,75.31
2016-08-27T09:00:56.773Z,75.98
2016-08-27T09:01:56.057Z,76.56
2016-08-27T09:02:56.060Z,76.86
2016-08-27T09:03:56.756Z,76.18
2016-08-27T09:04:56.102Z,77.05
2016-08-27T09:05:56.039Z,76.86
2016-08-27T09:06:56.059Z,77.05
2016-08-27T09:07:56.027Z,76.46
2016-08-27T09:08:56.024Z,76.28
2016-08-27T09:09:56.020Z,76.66
2016-08-27T09:10:56.015Z,75.98
2016-08-27T09:11:56.010Z,76.12
2016-08-27T09:12:56.007Z,75.15
2016-08-27T09:13:56.707Z,74.76
2016-08-27T09:14:55.994Z,75.44
2016-08-27T09:15:55.987Z,75.15
2016-08-27T09:16:55.985Z,75.54
2016-08-27T09:17:55.981Z,75.44
2016-08-27T09:18:55.975Z,75.34
2016-08-27T09:19:55.980Z,75.73
2016-08-27T09:20:56.693Z,75.73
2016-08-27T09:21:55.963Z,75.54
2016-08-27T09:22:55.971Z,75.63
2016-08-27T09:23:56.002Z,76.31
2016-08-27T09:24:55.945Z,74.47
2016-08-27T09:25:55.948Z,71.34
2016-08-27T09:26:56.644Z,69.24
2016-08-27T09:27:56.657Z,66.6
2016-08-27T09:28:55.929Z,66.53
2016-08-27T09:29:55.922Z,67.7
2016-08-27T09:30:55.918Z,67.6
2016-08-27T09:31:55.914Z,68.73
2016-08-27T09:32:56.669Z,69.12
2016-08-27T09:33:56.611Z,69.51
2016-08-27T09:34:55.907Z,70.25
2016-08-27T09:35:56.615Z,71.38
2016-08-27T09:36:56.609Z,70.45
2016-08-27T09:37:56.600Z,70.21
2016-08-27T09:38:55.883Z,71.96
2016-08-27T09:39:56.593Z,71.48
2016-08-27T09:40:55.873Z,73.22
2016-08-27T09:41:55.868Z,72.89
2016-08-27T09:42:55.868Z,72.55
2016-08-27T09:43:55.870Z,73.19
2016-08-27T09:44:55.856Z,73.28
2016-08-27T09:45:55.848Z,72.8
2016-08-27T09:46:56.063Z,73.28
2016-08-27T09:47:55.867Z,74.26
2016-08-27T09:48:55.835Z,74.06
2016-08-27T09:49:55.834Z,73.86
2016-08-27T09:50:55.830Z,73.96
2016-08-27T09:51:55.822Z,74.45
2016-08-27T09:52:55.817Z,73.48
2016-08-27T09:53:56.520Z,74.84
2016-08-27T09:54:55.804Z,72.8
2016-08-27T09:55:55.815Z,74.84
2016-08-27T09:56:55.801Z,73.86
2016-08-27T09:57:55.798Z,72.99
2016-08-27T09:58:55.794Z,72.51
2016-08-27T09:59:55.785Z,73.48
2016-08-27T10:00:55.777Z,74.35
2016-08-27T10:01:55.776Z,72.31
2016-08-27T10:02:55.776Z,73.19
2016-08-27T10:03:55.762Z,73.77
2016-08-27T10:04:55.759Z,73.96
2016-08-27T10:05:56.461Z,73.28
2016-08-27T10:06:55.752Z,72.02
2016-08-27T10:07:56.454Z,73.48
2016-08-27T10:08:55.791Z,75.45
2016-08-27T10:09:55.733Z,73.22
2016-08-27T10:10:55.738Z,74
2016-08-27T10:11:55.720Z,74
2016-08-27T10:12:55.720Z,73.22
2016-08-27T10:13:55.715Z,73.22
2016-08-27T10:14:55.715Z,73.13
2016-08-27T10:15:55.705Z,71.86
2016-08-27T10:16:55.701Z,73.13
2016-08-27T10:17:55.692Z,73.32
2016-08-27T10:18:55.698Z,73.36
2016-08-27T10:19:56.394Z,72.16
2016-08-27T10:20:55.680Z,72.06
2016-08-27T10:21:55.677Z,70.83
2016-08-27T10:22:55.670Z,71.77
2016-08-27T10:23:55.680Z,71.8
2016-08-27T10:24:55.660Z,72
2016-08-27T10:25:55.656Z,72
2016-08-27T10:26:56.364Z,72.58
2016-08-27T10:27:55.646Z,72.09
2016-08-27T10:28:55.643Z,71.22
2016-08-27T10:29:55.636Z,71.22
2016-08-27T10:30:55.648Z,70.73
2016-08-27T10:31:55.630Z,71.9
2016-08-27T10:32:55.623Z,70.15
2016-08-27T10:33:55.615Z,71.12
2016-08-27T10:34:55.627Z,70.39
2016-08-27T10:35:55.619Z,70.87
2016-08-27T10:36:55.608Z,71.55
2016-08-27T10:37:55.599Z,70.67
2016-08-27T10:38:55.597Z,70.22
2016-08-27T10:39:55.600Z,71.48
2016-08-27T10:40:55.582Z,68.96
2016-08-27T10:41:55.579Z,69.19
2016-08-27T10:42:56.281Z,67.93
2016-08-27T10:43:55.573Z,67.93
2016-08-27T10:44:55.567Z,67.34
2016-08-27T10:45:55.569Z,67.15
2016-08-27T10:46:56.266Z,67.44
2016-08-27T10:47:55.552Z,68.35
2016-08-27T10:48:55.558Z,66.79
2016-08-27T10:49:55.546Z,66.02
2016-08-27T10:50:55.547Z,68.35
2016-08-27T10:51:55.535Z,67.47
2016-08-27T10:52:55.532Z,67.11
2016-08-27T10:53:55.526Z,65.85
2016-08-27T10:54:55.539Z,64.98
2016-08-27T10:55:55.523Z,65.17
2016-08-27T10:56:55.516Z,65.56
2016-08-27T10:57:55.515Z,65.56
2016-08-27T10:58:55.521Z,64.39
2016-08-27T10:59:55.505Z,64.29
2016-08-27T11:00:55.504Z,64.29
2016-08-27T11:01:55.501Z,63.32
2016-08-27T11:02:55.497Z,65.01
2016-08-27T11:03:55.491Z,62.51
2016-08-27T11:04:55.486Z,62.54
2016-08-27T11:05:55.487Z,62.15
2016-08-27T11:06:55.480Z,62.08
2016-08-27T11:07:55.480Z,59.94
2016-08-27T11:08:55.475Z,60.13
2016-08-27T11:09:55.474Z,61.5
2016-08-27T11:10:55.472Z,60.13
2016-08-27T11:11:55.472Z,61.33
2016-08-27T11:12:55.469Z,58.97
2016-08-27T11:13:55.470Z,59.67
2016-08-27T11:14:55.466Z,58.34
2016-08-27T11:15:55.512Z,59.41
2016-08-27T11:16:55.499Z,59.28
2016-08-27T11:17:55.465Z,54.22
2016-08-27T11:18:55.467Z,54.81
2016-08-27T11:19:55.467Z,54.83
2016-08-27T11:20:56.179Z,54.67
2016-08-27T11:21:56.214Z,54.86
2016-08-27T11:22:55.488Z,54.4
2016-08-27T11:23:55.474Z,53.74
2016-08-27T11:24:55.480Z,51.49
2016-08-27T11:25:56.186Z,51.9
2016-08-27T11:26:56.238Z,50.63
2016-08-27T11:27:55.509Z,50.83
2016-08-27T11:28:55.490Z,49.29
2016-08-27T11:29:55.486Z,50.17
2016-08-27T11:30:55.503Z,49.7
2016-08-27T11:31:55.500Z,47.96
2016-08-27T11:32:55.496Z,47.17
2016-08-27T11:33:56.226Z,48.08
2016-08-27T11:34:55.517Z,48.96
2016-08-27T11:35:55.510Z,47
2016-08-27T11:36:55.526Z,46.93
2016-08-27T11:37:56.248Z,45.57
2016-08-27T11:38:55.521Z,45.48
2016-08-27T11:39:55.543Z,46.48
2016-08-27T11:40:55.557Z,44.81
2016-08-27T11:41:55.529Z,45.62
2016-08-27T11:42:55.551Z,44.73
2016-08-27T11:43:56.261Z,43.28
2016-08-27T11:44:56.284Z,43.77
2016-08-27T11:45:55.552Z,45.56
2016-08-27T11:46:55.557Z,43.01
2016-08-27T11:47:55.562Z,42.73
2016-08-27T11:48:56.314Z,41.94
2016-08-27T11:49:55.586Z,41.55
2016-08-27T11:50:55.579Z,41.96
2016-08-27T11:51:55.596Z,41.08
2016-08-27T11:52:55.587Z,40.51
2016-08-27T11:53:55.623Z,40.11
2016-08-27T11:54:55.625Z,40.11
2016-08-27T11:55:56.310Z,40.11
2016-08-27T11:56:55.611Z,40.51
2016-08-27T11:57:55.634Z,41.17
2016-08-27T11:58:55.824Z,39.12
2016-08-27T11:59:55.634Z,38.83
2016-08-27T12:00:55.652Z,41.22
2016-08-27T12:01:55.649Z,41.51
2016-08-27T12:02:55.645Z,41.73
2016-08-27T12:03:55.671Z,39.26
2016-08-27T12:04:55.686Z,38.39
2016-08-27T12:05:55.672Z,38.49
2016-08-27T12:06:55.669Z,40.48
2016-08-27T12:07:55.707Z,38.02
2016-08-27T12:08:55.694Z,37.94
2016-08-27T12:09:56.424Z,35.98
2016-08-27T12:10:55.749Z,36.06
2016-08-27T12:11:55.704Z,37.54
2016-08-27T12:12:55.735Z,36.08
2016-08-27T12:13:55.743Z,36.47
2016-08-27T12:14:55.723Z,36.77
2016-08-27T12:15:55.742Z,36.59
2016-08-27T12:16:55.735Z,36.51
2016-08-27T12:17:55.753Z,34.94
2016-08-27T12:18:55.760Z,35.14
2016-08-27T12:19:55.763Z,33.45
2016-08-27T12:20:56.496Z,34.64
2016-08-27T12:21:55.783Z,35.73
2016-08-27T12:22:55.788Z,34.84
2016-08-27T12:23:55.787Z,33.95
2016-08-27T12:24:55.828Z,33.65
2016-08-27T12:25:55.800Z,35.14
2016-08-27T12:26:55.807Z,36.01
2016-08-27T12:27:55.833Z,34.92
2016-08-27T12:28:55.821Z,33.94
2016-08-27T12:29:55.831Z,33.75
2016-08-27T12:30:55.849Z,35.24
2016-08-27T12:31:55.844Z,34.25
2016-08-27T12:32:55.854Z,34.66
2016-08-27T12:33:55.855Z,34.27
2016-08-27T12:34:55.876Z,33.56
2016-08-27T12:35:55.889Z,36.39
2016-08-27T12:36:55.877Z,35.02
2016-08-27T12:37:56.606Z,34.64
2016-08-27T12:38:55.901Z,36.82
2016-08-27T12:39:55.896Z,33.37
2016-08-27T12:40:55.906Z,35.85
2016-08-27T12:41:55.929Z,34.48
2016-08-27T12:42:55.923Z,34.28
2016-08-27T12:43:55.942Z,32.42
2016-08-27T12:44:55.942Z,34.68
2016-08-27T12:45:55.945Z,34.18
2016-08-27T12:46:55.958Z,33.69
2016-08-27T12:47:56.011Z,33.39
2016-08-27T12:48:55.965Z,33.8
2016-08-27T12:49:56.000Z,33.22
2016-08-27T12:50:55.986Z,33.8
2016-08-27T12:51:55.983Z,33.5
2016-08-27T12:52:56.010Z,32.91
2016-08-27T12:53:56.729Z,33.39